Time;durP1;ratioP1;P1;durP2;ratioP2;P2;SDS_P1;SDS_P2;PMS_P1;PMS_P2;Temp;Humidity;BMP_temperature;BMP_pressure;BME280_temperature;BME280_humidity;BME280_pressure;Samples;Min_cycle;Max_cycle;Signal;HPM_P1;HPM_P2
2023/06/01 00:02:03;;;;;;;14.13;7.70;;;;;;;9.49;80.66;102134.72;5045863;28;19916;-89
2023/06/01 00:04:28;;;;;;;13.38;7.28;;;;;;;9.42;81.58;102131.84;5050411;28;20519;-88
2023/06/01 00:06:56;;;;;;;12.88;7.07;;;;;;;9.37;81.85;102136.81;5052368;28;20037;-88
2023/06/01 00:09:21;;;;;;;13.52;8.05;;;;;;;9.31;81.14;102134.78;5053776;28;20422;-89
2023/06/01 00:11:47;;;;;;;;;;;;;;;9.27;81.45;102136.09;5052981;28;20532;-88
2023/06/01 00:14:12;;;;;;;13.80;7.13;;;;;;;9.27;81.62;102138.78;5054222;28;20288;-88
2023/06/01 00:16:37;;;;;;;14.98;7.28;;;;;;;9.22;81.86;102134.72;5054314;28;20032;-88
2023/06/01 00:19:03;;;;;;;13.32;7.07;;;;;;;9.19;82.45;102126.97;5054061;28;20154;-89
2023/06/01 00:21:28;;;;;;;12.88;7.65;;;;;;;9.20;82.06;102127.81;5052914;28;20013;-88
2023/06/01 00:23:54;;;;;;;;;;;;;;;9.19;82.26;102126.97;5052501;28;20024;-88
2023/06/01 00:26:23;;;;;;;11.05;7.28;;;;;;;9.28;82.45;102118.97;5053346;28;19947;-88
2023/06/01 00:28:49;;;;;;;15.90;8.05;;;;;;;9.32;82.18;102120.34;5049020;28;20029;-87
2023/06/01 00:31:15;;;;;;;;;;;;;;;9.37;81.57;102118.00;5052703;28;20040;-89
2023/06/01 00:33:43;;;;;;;13.32;8.02;;;;;;;9.44;80.95;102118.25;5056213;28;20415;-89
2023/06/01 00:36:08;;;;;;;12.80;7.70;;;;;;;9.46;81.07;102125.16;5048939;28;20052;-89
2023/06/01 00:38:33;;;;;;;;;;;;;;;9.51;81.04;102125.53;5057668;28;20112;-89
2023/06/01 00:40:59;;;;;;;12.43;7.33;;;;;;;9.52;80.53;102126.34;5061706;28;19913;-90
2023/06/01 00:43:24;;;;;;;;;;;;;;;9.47;80.31;102126.84;5053277;28;20033;-88
2023/06/01 00:45:50;;;;;;;12.93;6.95;;;;;;;9.45;80.12;102130.66;5050517;28;19921;-89
2023/06/01 00:48:16;;;;;;;11.50;6.85;;;;;;;9.49;79.62;102122.16;5053164;28;20033;-88
2023/06/01 00:50:42;;;;;;;15.85;7.20;;;;;;;9.48;79.97;102125.84;5014396;28;20029;-88
2023/06/01 00:53:09;;;;;;;9.95;7.20;;;;;;;9.51;79.86;102127.34;5041870;28;20031;-88
2023/06/01 00:55:34;;;;;;;15.20;7.45;;;;;;;9.53;79.95;102128.88;5017605;28;20035;-88
2023/06/01 00:58:00;;;;;;;13.55;7.40;;;;;;;9.58;79.59;102136.47;5049672;28;20025;-89
2023/06/01 01:00:26;;;;;;;12.88;7.60;;;;;;;9.59;79.35;102132.78;5033877;28;20032;-87
2023/06/01 01:02:56;;;;;;;12.88;7.80;;;;;;;9.62;79.38;102134.31;5052891;28;20029;-88
2023/06/01 01:05:26;;;;;;;13.35;7.60;;;;;;;9.69;79.29;102138.06;5050632;28;20019;-89
2023/06/01 01:08:07;;;;;;;12.40;8.00;;;;;;;9.67;79.22;102132.00;5051275;28;20068;-88
2023/06/01 01:10:38;;;;;;;15.32;7.25;;;;;;;9.63;79.11;102136.00;5035560;28;20131;-87
2023/06/01 01:13:10;;;;;;;12.30;7.32;;;;;;;9.62;79.11;102139.69;5029045;28;20056;-87
2023/06/01 01:16:00;;;;;;;12.32;7.05;;;;;;;9.65;79.36;102136.69;5024488;28;20037;-87
2023/06/01 01:18:45;;;;;;;12.43;7.35;;;;;;;9.64;79.31;102135.00;5039169;28;20083;-88
2023/06/01 01:21:27;;;;;;;10.40;7.30;;;;;;;9.61;78.94;102138.00;5036995;28;20083;-88
2023/06/01 01:24:23;;;;;;;12.10;7.38;;;;;;;9.65;78.72;102147.44;5041027;28;20025;-89
2023/06/01 01:27:37;;;;;;;11.05;6.68;;;;;;;9.64;78.90;102143.06;5055745;28;20040;-87
2023/06/01 01:30:05;;;;;;;11.00;6.65;;;;;;;9.67;79.30;102140.06;5045586;28;20063;-88
2023/06/01 01:32:30;;;;;;;14.88;7.63;;;;;;;9.65;79.65;102147.44;5077835;28;20013;-89
2023/06/01 01:34:56;;;;;;;13.15;7.07;;;;;;;9.69;78.87;102140.75;5043329;28;20047;-87
2023/06/01 01:37:22;;;;;;;;;;;;;;;9.73;78.32;102138.56;5049452;28;20036;-87
2023/06/01 01:39:47;;;;;;;10.50;6.28;;;;;;;9.69;78.34;102138.91;5054726;28;19952;-88
2023/06/01 01:42:14;;;;;;;10.73;7.32;;;;;;;9.72;78.72;102143.09;5037435;28;20043;-88
2023/06/01 01:44:39;;;;;;;11.57;6.40;;;;;;;9.75;78.67;102126.66;5052808;28;20025;-88
2023/06/01 01:47:17;;;;;;;11.18;6.85;;;;;;;9.81;78.52;102135.91;5053180;28;20507;-88
2023/06/01 01:49:48;;;;;;;11.77;7.05;;;;;;;9.78;78.13;102129.03;5054888;28;20033;-88
2023/06/01 01:52:29;;;;;;;10.57;6.68;;;;;;;9.82;78.25;102143.84;5021806;28;20029;-89
2023/06/01 01:54:54;;;;;;;12.43;7.82;;;;;;;9.79;78.02;102130.72;5041009;28;20033;-88
2023/06/01 01:57:20;;;;;;;12.20;6.45;;;;;;;9.84;77.92;102140.97;5040187;28;20032;-89
2023/06/01 01:59:46;;;;;;;15.15;7.50;;;;;;;9.80;77.93;102135.09;5060009;28;20052;-88
2023/06/01 02:02:11;;;;;;;;;;;;;;;9.75;77.97;102132.03;5060639;28;20040;-87
2023/06/01 02:04:43;;;;;;;13.07;7.43;;;;;;;9.72;78.22;102135.03;5040399;28;20364;-87
2023/06/01 02:07:09;;;;;;;14.98;7.90;;;;;;;9.71;77.85;102136.88;5055787;28;20037;-88
2023/06/01 02:09:34;;;;;;;13.27;7.22;;;;;;;9.68;77.97;102131.00;5030840;28;20052;-87
2023/06/01 02:12:01;;;;;;;12.45;7.38;;;;;;;9.66;78.14;102125.75;5055179;28;20435;-88
2023/06/01 02:14:27;;;;;;;14.40;7.80;;;;;;;9.64;77.80;102129.63;5054069;28;20524;-88
2023/06/01 02:16:53;;;;;;;14.88;8.10;;;;;;;9.62;78.29;102137.81;5042943;28;20108;-85
2023/06/01 02:19:19;;;;;;;14.98;8.73;;;;;;;9.56;77.91;102136.63;5056246;28;20060;-87
2023/06/01 02:21:44;;;;;;;14.43;8.43;;;;;;;9.58;77.85;102136.47;5055508;28;20112;-89
2023/06/01 02:24:10;;;;;;;15.07;8.13;;;;;;;9.51;77.99;102132.72;5054290;28;20033;-87
2023/06/01 02:26:35;;;;;;;;;;;;;;;9.48;78.10;102135.72;5056997;28;20032;-84
2023/06/01 02:29:05;;;;;;;14.10;8.00;;;;;;;9.51;77.98;102135.41;5044102;28;20353;-90
2023/06/01 02:31:34;;;;;;;12.95;7.38;;;;;;;9.54;77.77;102135.09;5056012;28;20727;-89
2023/06/01 02:33:59;;;;;;;14.82;8.48;;;;;;;9.54;77.92;102132.41;5054947;28;20024;-86
2023/06/01 02:36:26;;;;;;;12.48;7.93;;;;;;;9.55;77.73;102134.94;5055145;28;20036;-85
2023/06/01 02:38:51;;;;;;;13.57;8.43;;;;;;;9.54;77.60;102130.56;5055776;28;20468;-85
2023/06/01 02:41:17;;;;;;;16.95;8.80;;;;;;;9.52;77.51;102127.22;5056425;28;20040;-90
2023/06/01 02:43:42;;;;;;;;;;;;;;;9.40;78.39;102125.75;5057982;28;20045;-88
2023/06/01 02:46:07;;;;;;;14.40;8.40;;;;;;;9.46;78.28;102121.59;5072929;28;19980;-89
2023/06/01 02:48:32;;;;;;;12.48;8.23;;;;;;;9.44;77.59;102123.63;5049755;28;20123;-89
2023/06/01 02:50:58;;;;;;;;;;;;;;;9.49;77.85;102126.66;5070137;28;20025;-89
2023/06/01 02:53:26;;;;;;;10.97;7.60;;;;;;;9.48;78.31;102123.16;5058979;28;19921;-89
2023/06/01 02:55:52;;;;;;;14.27;8.70;;;;;;;9.44;77.78;102132.53;5057174;28;20063;-89
2023/06/01 02:58:18;;;;;;;13.02;8.52;;;;;;;9.48;78.54;102133.03;5059944;28;20041;-87
2023/06/01 03:00:43;;;;;;;15.35;8.77;;;;;;;9.51;78.29;102136.28;5061184;28;20025;-87
2023/06/01 03:03:08;;;;;;;;;;;;;;;9.49;78.14;102122.16;5064721;28;20480;-89
2023/06/01 03:05:35;;;;;;;14.00;8.33;;;;;;;9.51;78.05;102136.28;5059571;28;19924;-89
2023/06/01 03:08:03;;;;;;;12.45;8.27;;;;;;;9.52;78.07;102132.59;5050889;28;20291;-89
2023/06/01 03:10:28;;;;;;;13.20;7.85;;;;;;;9.53;77.87;102131.56;5056986;28;20028;-90
2023/06/01 03:12:54;;;;;;;14.55;8.65;;;;;;;9.53;77.36;102117.28;5054571;28;20039;-89
2023/06/01 03:15:20;;;;;;;17.48;9.10;;;;;;;9.53;77.93;102123.50;5056274;28;20392;-89
2023/06/01 03:17:45;;;;;;;16.02;8.65;;;;;;;9.46;77.68;102119.78;5054133;28;20029;-88
2023/06/01 03:20:17;;;;;;;;;;;;;;;9.47;77.62;102123.28;5055930;28;20035;-89
2023/06/01 03:22:45;;;;;;;14.73;8.80;;;;;;;9.44;78.27;102119.09;5057262;28;19897;-90
2023/06/01 03:25:12;;;;;;;12.35;7.07;;;;;;;9.48;77.50;102120.47;5058019;28;20027;-89
2023/06/01 03:27:38;;;;;;;14.73;7.47;;;;;;;9.49;77.51;102122.16;5054309;28;20552;-87
2023/06/01 03:30:03;;;;;;;14.48;8.30;;;;;;;9.45;78.01;102120.78;5053448;28;20053;-89
2023/06/01 03:32:30;;;;;;;12.63;7.60;;;;;;;9.43;77.62;102128.16;5055326;28;20369;-88
2023/06/01 03:34:55;;;;;;;12.73;7.72;;;;;;;9.46;77.69;102127.84;5065999;28;20195;-89
2023/06/01 03:37:20;;;;;;;14.75;7.97;;;;;;;9.51;77.99;102127.34;5057644;28;20476;-89
2023/06/01 03:39:46;;;;;;;;;;;;;;;9.52;77.94;102121.84;5056278;28;20029;-89
2023/06/01 03:42:11;;;;;;;12.33;7.57;;;;;;;9.52;77.70;102129.03;5054234;28;19921;-90
2023/06/01 03:44:38;;;;;;;14.35;7.53;;;;;;;9.54;77.87;102124.34;5049914;28;20048;-89
2023/06/01 03:47:04;;;;;;;16.35;7.90;;;;;;;9.54;77.66;102114.44;5051290;28;20151;-89
2023/06/01 03:49:29;;;;;;;13.40;6.95;;;;;;;9.65;78.35;102109.81;5055356;28;20029;-89
2023/06/01 03:51:57;;;;;;;;;;;;;;;9.67;77.16;102107.78;5049342;28;20036;-88
2023/06/01 03:54:23;;;;;;;14.20;8.02;;;;;;;9.73;77.33;102109.00;5019230;28;19917;-89
2023/06/01 03:56:48;;;;;;;14.32;9.55;;;;;;;9.72;76.55;102110.84;5044908;28;20063;-87
2023/06/01 03:59:14;;;;;;;;;;;;;;;9.72;76.33;102110.84;5057825;28;20217;-85
2023/06/01 04:01:42;;;;;;;16.33;8.95;;;;;;;9.70;76.69;102107.47;5056320;28;19917;-88
2023/06/01 04:04:12;;;;;;;14.95;8.48;;;;;;;9.76;76.08;102109.50;5041591;28;20041;-89
2023/06/01 04:06:38;;;;;;;14.13;8.05;;;;;;;9.70;76.23;102118.25;5063106;28;20021;-89
2023/06/01 04:09:06;;;;;;;13.25;8.00;;;;;;;9.72;75.71;102110.84;5064230;28;20111;-89
2023/06/01 04:11:36;;;;;;;15.60;8.13;;;;;;;9.77;75.56;102113.88;5056407;28;20052;-87
2023/06/01 04:14:01;;;;;;;10.90;7.45;;;;;;;9.81;75.76;102111.72;5059936;28;20105;-90
2023/06/01 04:16:29;;;;;;;12.15;6.97;;;;;;;9.82;75.84;102108.88;5055904;28;20097;-91
2023/06/01 04:18:55;;;;;;;12.02;7.20;;;;;;;9.86;75.60;102107.56;5055552;28;20036;-89
2023/06/01 04:21:23;;;;;;;16.35;7.97;;;;;;;9.93;75.09;102117.66;5053749;28;20021;-90
2023/06/01 04:23:49;;;;;;;11.77;7.18;;;;;;;9.93;75.04;102117.66;5056000;28;20032;-90
2023/06/01 04:26:15;;;;;;;12.18;7.68;;;;;;;9.93;75.16;102117.66;5051873;28;20539;-89
2023/06/01 04:28:44;;;;;;;13.77;7.70;;;;;;;9.99;75.21;102117.84;5048821;28;20029;-89
2023/06/01 04:31:16;;;;;;;15.13;7.95;;;;;;;10.05;74.62;102110.16;5052066;28;20096;-89
2023/06/01 04:33:45;;;;;;;14.25;8.02;;;;;;;10.08;74.61;102116.03;5052463;28;20083;-89
2023/06/01 04:36:13;;;;;;;12.50;8.38;;;;;;;10.08;74.22;102116.03;5052604;28;20017;-90
2023/06/01 04:38:42;;;;;;;11.63;8.00;;;;;;;10.05;73.98;102129.84;5063191;28;20036;-89
2023/06/01 04:41:13;;;;;;;13.25;7.50;;;;;;;10.11;73.61;102131.03;5063917;28;20063;-87
2023/06/01 04:43:39;;;;;;;13.27;7.25;;;;;;;10.07;73.99;102125.09;5052846;28;20483;-88
2023/06/01 04:46:05;;;;;;;15.98;7.90;;;;;;;10.09;73.53;102115.03;5052502;28;20029;-89
2023/06/01 04:48:31;;;;;;;13.40;7.80;;;;;;;10.08;73.23;102131.34;5055359;28;20021;-88
2023/06/01 04:50:58;;;;;;;19.88;8.15;;;;;;;10.12;73.05;102133.53;5071531;23;20057;-83
2023/06/01 04:53:24;;;;;;;10.60;6.88;;;;;;;10.15;73.11;102133.22;5049692;28;20028;-86
2023/06/01 04:55:50;;;;;;;11.00;7.80;;;;;;;10.10;73.55;102129.34;5056271;28;20039;-87
2023/06/01 04:58:15;;;;;;;12.60;7.43;;;;;;;10.12;73.13;102130.84;5053173;28;20033;-86
2023/06/01 05:00:41;;;;;;;16.70;7.60;;;;;;;10.15;73.23;102132.38;5055910;28;20059;-86
2023/06/01 05:03:08;;;;;;;13.73;7.25;;;;;;;10.15;73.39;102133.22;5054671;28;20028;-86
2023/06/01 05:05:36;;;;;;;13.77;7.45;;;;;;;10.15;73.34;102127.84;5054587;28;20021;-87
2023/06/01 05:08:04;;;;;;;16.55;8.00;;;;;;;10.23;73.17;102140.47;5055742;28;20102;-86
2023/06/01 05:10:29;;;;;;;11.63;7.60;;;;;;;10.37;73.02;102132.78;5060354;28;20021;-87
2023/06/01 05:12:55;;;;;;;16.13;7.50;;;;;;;10.45;72.69;102138.22;5058738;28;20085;-87
2023/06/01 05:15:20;;;;;;;12.07;7.30;;;;;;;10.56;71.87;102129.84;5055855;28;20108;-87
2023/06/01 05:17:47;;;;;;;13.30;7.68;;;;;;;10.54;72.01;102131.03;5060971;28;20043;-86
2023/06/01 05:20:12;;;;;;;15.75;7.55;;;;;;;10.51;72.41;102132.16;5060569;28;20041;-85
2023/06/01 05:22:38;;;;;;;12.77;7.03;;;;;;;10.61;72.17;102129.34;5058914;28;20100;-88
2023/06/01 05:25:05;;;;;;;15.13;7.43;;;;;;;10.64;71.87;102131.69;5056842;28;20021;-87
2023/06/01 05:27:31;;;;;;;18.80;8.18;;;;;;;10.68;71.58;102127.69;5075189;28;20383;-87
2023/06/01 05:29:56;;;;;;;13.65;7.60;;;;;;;10.68;71.50;102130.38;5064269;28;20033;-86
2023/06/01 05:32:21;;;;;;;15.00;7.88;;;;;;;10.68;71.56;102124.97;5054895;28;20095;-87
2023/06/01 05:34:47;;;;;;;14.52;7.38;;;;;;;10.79;71.34;102131.03;5054093;28;20384;-88
2023/06/01 05:37:12;;;;;;;13.85;8.25;;;;;;;10.89;70.96;102134.44;5057793;28;20027;-87
2023/06/01 05:39:38;;;;;;;13.38;7.57;;;;;;;10.86;71.12;102130.19;5054996;28;20495;-87
2023/06/01 05:42:03;;;;;;;16.40;8.20;;;;;;;10.91;71.26;102138.63;5056215;28;20040;-86
2023/06/01 05:44:32;;;;;;;14.27;8.10;;;;;;;10.99;71.15;102135.09;5056872;28;20021;-87
2023/06/01 05:46:57;;;;;;;12.82;8.13;;;;;;;11.11;70.88;102137.47;5055711;28;20033;-87
2023/06/01 05:49:22;;;;;;;18.02;7.13;;;;;;;11.23;70.63;102138.81;5034883;28;20387;-88
2023/06/01 05:51:48;;;;;;;12.55;7.38;;;;;;;11.25;70.30;102134.09;5052537;28;20032;-87
2023/06/01 05:54:13;;;;;;;17.77;8.02;;;;;;;11.31;69.95;102133.41;5049904;28;20389;-86
2023/06/01 05:56:40;;;;;;;13.90;8.05;;;;;;;11.42;69.52;102129.50;5053409;28;20025;-87
2023/06/01 05:59:07;;;;;;;18.52;7.57;;;;;;;11.47;69.08;102126.31;5063932;28;20009;-85
2023/06/01 06:03:59;;;;;;;12.55;7.50;;;;;;;11.76;68.93;102131.13;5059923;23;20064;-84
2023/06/01 06:06:25;;;;;;;15.95;7.32;;;;;;;11.98;68.31;102124.19;5052991;28;20017;-85
2023/06/01 06:08:51;;;;;;;15.88;8.07;;;;;;;11.84;67.66;102127.53;5055074;28;20108;-85
2023/06/01 06:11:16;;;;;;;16.13;7.03;;;;;;;12.12;67.12;102135.25;5055422;28;20063;-84
2023/06/01 06:13:42;;;;;;;13.50;7.95;;;;;;;12.13;66.87;102132.34;5036242;28;20052;-86
2023/06/01 06:16:10;;;;;;;12.88;7.15;;;;;;;12.14;66.95;102138.63;5054337;28;20037;-86
2023/06/01 06:18:35;;;;;;;15.85;7.28;;;;;;;12.35;66.31;102129.06;5072377;28;20052;-86
2023/06/01 06:21:00;;;;;;;13.90;7.07;;;;;;;12.34;65.63;102132.78;5073343;28;20505;-86
2023/06/01 06:23:32;;;;;;;16.33;7.38;;;;;;;12.37;65.03;102143.22;5052019;28;20138;-84
2023/06/01 06:25:59;;;;;;;12.43;6.72;;;;;;;12.50;64.45;102146.19;5049897;28;20044;-84
2023/06/01 06:28:26;;;;;;;13.90;7.35;;;;;;;12.55;63.46;102140.25;5033176;28;20131;-83
2023/06/01 06:30:51;;;;;;;12.48;7.65;;;;;;;12.71;63.40;102137.44;5053627;28;20453;-83
2023/06/01 06:33:17;;;;;;;15.27;7.20;;;;;;;12.92;62.59;102135.09;5051969;28;20029;-82
2023/06/01 06:35:42;;;;;;;16.20;8.00;;;;;;;13.13;61.99;102143.38;5051322;28;20024;-82
2023/06/01 06:38:08;;;;;;;16.08;7.07;;;;;;;13.25;61.54;102134.81;5055519;28;20118;-82
2023/06/01 06:40:36;;;;;;;14.98;7.00;;;;;;;13.53;60.57;102143.19;5053651;28;20028;-83
2023/06/01 06:43:01;;;;;;;11.63;6.70;;;;;;;13.57;60.88;102143.69;5054849;28;20079;-83
2023/06/01 06:45:26;;;;;;;14.43;7.25;;;;;;;13.08;61.00;102153.88;5051525;28;20095;-83
2023/06/01 06:47:52;;;;;;;14.35;7.57;;;;;;;12.91;61.84;102146.91;5051750;28;20039;-83
2023/06/01 06:50:17;;;;;;;11.68;6.70;;;;;;;13.11;61.21;102152.69;5050353;28;20032;-82
2023/06/01 06:52:45;;;;;;;11.98;6.55;;;;;;;13.11;61.63;102150.81;5051803;28;20041;-83
2023/06/01 06:55:13;;;;;;;12.35;6.70;;;;;;;13.15;61.57;102146.72;5031135;28;20556;-83
2023/06/01 06:57:39;;;;;;;12.70;6.93;;;;;;;13.25;61.22;102151.03;5050455;28;20460;-82
2023/06/01 07:00:07;;;;;;;12.38;6.53;;;;;;;13.52;60.86;102146.09;5052262;28;20025;-83
2023/06/01 07:02:38;;;;;;;15.18;7.05;;;;;;;13.54;60.72;102146.75;5048190;28;20136;-83
2023/06/01 07:05:04;;;;;;;12.88;6.60;;;;;;;13.45;60.63;102146.81;5032687;28;20766;-85
2023/06/01 07:07:29;;;;;;;13.02;6.95;;;;;;;13.08;61.21;102150.34;5051509;28;20029;-84
2023/06/01 07:09:54;;;;;;;11.63;6.38;;;;;;;13.11;61.27;102150.81;5049985;28;20029;-84
2023/06/01 07:12:23;;;;;;;12.07;6.35;;;;;;;12.98;61.02;102156.00;5049804;28;20029;-85
2023/06/01 07:14:48;;;;;;;10.32;6.38;;;;;;;13.22;61.29;102157.66;5051550;28;20036;-83
2023/06/01 07:17:14;;;;;;;12.27;6.55;;;;;;;13.48;60.17;102154.56;5051211;28;20542;-83
2023/06/01 07:19:39;;;;;;;10.70;6.05;;;;;;;13.81;58.82;102156.09;5049846;28;20033;-83
2023/06/01 07:22:05;;;;;;;12.38;6.53;;;;;;;13.82;58.38;102151.50;5051968;28;20013;-83
2023/06/01 07:24:31;;;;;;;11.45;6.93;;;;;;;13.67;59.26;102149.66;5050178;28;20384;-83
2023/06/01 07:26:57;;;;;;;10.32;6.50;;;;;;;13.70;59.09;102148.41;5048796;28;20032;-83
2023/06/01 07:29:22;;;;;;;14.00;6.88;;;;;;;14.26;57.34;102156.06;5051135;28;20032;-83
2023/06/01 07:31:50;;;;;;;11.95;6.45;;;;;;;14.84;55.96;102164.25;5051038;28;20029;-83
2023/06/01 07:34:16;;;;;;;11.25;6.75;;;;;;;15.07;54.82;102151.50;5049898;28;20021;-83
2023/06/01 07:36:41;;;;;;;16.00;7.20;;;;;;;15.16;54.42;102153.88;5051277;28;20376;-82
2023/06/01 07:39:08;;;;;;;12.70;6.72;;;;;;;15.49;54.01;102157.91;5050547;28;20060;-83
2023/06/01 07:41:34;;;;;;;14.90;6.40;;;;;;;15.73;53.28;102155.75;5052605;28;20049;-84
2023/06/01 07:43:59;;;;;;;12.65;6.47;;;;;;;15.36;53.56;102153.22;5054638;28;20024;-84
2023/06/01 07:46:26;;;;;;;10.85;6.20;;;;;;;16.42;51.24;102162.16;5054533;28;20029;-84
2023/06/01 07:48:51;;;;;;;11.13;6.35;;;;;;;17.21;48.85;102151.66;5052836;28;20013;-84
2023/06/01 07:51:16;;;;;;;14.02;6.57;;;;;;;17.22;49.17;102156.03;5052173;28;20065;-84
2023/06/01 07:53:43;;;;;;;15.05;6.43;;;;;;;17.56;48.50;102159.56;5049750;28;20033;-82
2023/06/01 07:56:09;;;;;;;12.85;6.72;;;;;;;17.54;48.14;102158.97;5046896;28;20029;-82
2023/06/01 07:58:34;;;;;;;12.50;6.38;;;;;;;17.31;48.72;102147.69;5048314;28;20252;-83
2023/06/01 08:01:00;;;;;;;12.05;6.55;;;;;;;17.46;48.48;102150.19;5049074;28;20479;-82
2023/06/01 08:03:25;;;;;;;11.60;6.75;;;;;;;17.68;48.00;102150.78;5048716;28;20593;-83
2023/06/01 08:05:57;;;;;;;9.93;6.43;;;;;;;18.00;46.68;102156.38;5047350;28;20353;-84
2023/06/01 08:08:23;;;;;;;9.93;6.05;;;;;;;18.79;45.88;102148.00;5049212;28;20112;-84
2023/06/01 08:10:48;;;;;;;11.20;6.85;;;;;;;20.29;42.61;102150.75;5050192;28;20060;-84
2023/06/01 08:13:14;;;;;;;11.52;5.97;;;;;;;22.05;38.59;102145.97;5051033;28;20446;-83
2023/06/01 08:15:43;;;;;;;9.55;6.35;;;;;;;22.01;38.03;102139.31;5033354;28;20033;-84
2023/06/01 08:24:52;;;;;;;10.48;6.15;;;;;;;22.59;36.09;102147.59;5057925;28;20048;-84
2023/06/01 08:27:30;;;;;;;8.93;5.85;;;;;;;22.83;35.53;102138.13;5049899;28;20042;-84
2023/06/01 08:30:03;;;;;;;10.30;6.00;;;;;;;23.53;34.68;102148.00;5049729;28;20061;-84
2023/06/01 08:32:49;;;;;;;8.15;6.15;;;;;;;22.07;36.74;102127.34;5049340;28;20041;-85
2023/06/01 08:35:15;;;;;;;;;;;;;;;21.35;38.80;102135.69;5050103;28;20033;-83
2023/06/01 08:37:44;;;;;;;;;;;;;;;20.98;39.66;102133.16;5050198;28;20281;-82
2023/06/01 08:40:10;;;;;;;11.68;6.57;;;;;;;21.33;39.05;102134.25;5060186;28;20275;-82
2023/06/01 08:42:45;;;;;;;12.18;6.32;;;;;;;22.05;37.83;102130.34;5050735;28;20024;-83
2023/06/01 08:45:11;;;;;;;9.93;6.10;;;;;;;21.55;38.27;102137.19;5058022;28;20127;-83
2023/06/01 08:47:39;;;;;;;7.65;6.18;;;;;;;21.26;38.56;102130.81;5043156;28;20362;-83
2023/06/01 08:50:05;;;;;;;13.50;6.70;;;;;;;21.26;39.44;102131.63;4995846;28;20044;-83
2023/06/01 08:52:31;;;;;;;9.65;6.20;;;;;;;22.27;37.70;102135.16;5031051;28;20324;-82
2023/06/01 08:55:07;;;;;;;8.73;5.80;;;;;;;20.69;40.83;102124.72;5035886;28;20504;-83
2023/06/01 08:57:32;;;;;;;11.05;6.35;;;;;;;21.32;39.55;102125.22;5070416;28;20029;-83
2023/06/01 09:00:02;;;;;;;8.73;5.60;;;;;;;21.39;39.83;102126.97;5045493;28;20032;-83
2023/06/01 09:02:28;;;;;;;10.05;6.20;;;;;;;21.46;39.75;102130.44;5051517;28;20025;-83
2023/06/01 09:04:53;;;;;;;10.30;6.00;;;;;;;21.08;39.72;102118.03;5050250;28;20326;-83
2023/06/01 09:09:50;;;;;;;13.02;6.40;;;;;;;19.41;43.53;102125.47;5067710;23;20106;-82
2023/06/01 09:12:27;;;;;;;9.05;5.82;;;;;;;19.66;43.20;102124.56;5061742;28;20099;-82
2023/06/01 09:15:06;;;;;;;9.93;5.60;;;;;;;19.65;43.09;102122.91;5060040;28;20036;-82
2023/06/01 09:17:33;;;;;;;10.07;5.80;;;;;;;19.52;43.87;102122.00;5050651;28;20568;-82
2023/06/01 09:20:01;;;;;;;8.70;5.50;;;;;;;19.88;43.27;102121.44;5032968;28;20544;-82
2023/06/01 09:22:43;;;;;;;9.63;5.25;;;;;;;19.69;43.21;102124.94;5051022;28;20095;-82
2023/06/01 09:25:09;;;;;;;9.50;5.90;;;;;;;18.76;45.50;102113.81;5047993;28;20044;-82
2023/06/01 09:27:45;;;;;;;8.00;5.40;;;;;;;18.52;45.72;102120.06;5049095;28;20138;-82
2023/06/01 09:30:11;;;;;;;7.05;5.22;;;;;;;19.32;44.23;102107.69;5049693;28;20107;-83
2023/06/01 09:32:36;;;;;;;7.90;5.07;;;;;;;19.49;43.94;102113.44;5048790;28;20421;-82
2023/06/01 09:35:03;;;;;;;9.65;5.05;;;;;;;19.89;43.45;102118.44;5051515;28;20078;-83
2023/06/01 09:37:28;;;;;;;8.57;5.00;;;;;;;20.20;42.56;102118.50;5053437;28;20566;-83
2023/06/01 09:39:53;;;;;;;8.82;5.45;;;;;;;19.72;43.26;102114.63;5050911;28;20036;-83
2023/06/01 09:42:34;;;;;;;9.45;5.63;;;;;;;19.27;44.61;102110.25;5053365;28;20033;-84
2023/06/01 09:45:37;;;;;;;7.68;4.93;;;;;;;19.38;43.68;102113.09;5035074;28;20375;-83
2023/06/01 09:48:17;;;;;;;8.85;5.70;;;;;;;19.06;44.75;102104.19;4952978;29;20090;-84
2023/06/01 09:50:44;;;;;;;9.77;5.78;;;;;;;18.89;46.07;102112.03;5008623;28;20040;-83
2023/06/01 09:53:10;;;;;;;10.13;5.55;;;;;;;19.50;44.58;102109.63;5033720;28;20053;-83
2023/06/01 09:55:36;;;;;;;9.77;5.68;;;;;;;19.25;45.05;102102.31;5052947;28;20480;-83
2023/06/01 09:58:24;;;;;;;9.32;6.10;;;;;;;19.03;44.98;102099.16;5053158;28;20029;-83
2023/06/01 10:00:50;;;;;;;9.63;5.50;;;;;;;19.66;43.97;102102.72;5033941;28;20045;-83
2023/06/01 10:03:16;;;;;;;11.05;5.93;;;;;;;19.66;43.69;102098.09;5046373;28;20063;-83
2023/06/01 10:05:46;;;;;;;9.35;5.60;;;;;;;20.04;43.47;102098.94;5054812;28;20021;-84
2023/06/01 10:08:14;;;;;;;10.02;5.82;;;;;;;19.99;42.97;102091.44;5037277;28;20418;-84
2023/06/01 10:10:42;;;;;;;8.45;5.60;;;;;;;20.74;42.02;102105.72;5053657;28;20055;-84
2023/06/01 10:13:07;;;;;;;8.95;5.60;;;;;;;21.82;39.74;102095.63;5035164;28;20471;-84
2023/06/01 10:15:36;;;;;;;8.52;5.43;;;;;;;22.81;37.85;102099.09;5034626;28;20025;-84
2023/06/01 10:18:04;;;;;;;6.90;5.43;;;;;;;23.56;35.75;102095.28;5053183;28;20094;-82
2023/06/01 10:20:32;;;;;;;9.25;5.43;;;;;;;24.11;35.76;102107.25;5052744;28;20498;-82
2023/06/01 10:22:57;;;;;;;8.68;5.35;;;;;;;24.02;35.07;102098.63;5052189;28;20029;-82
2023/06/01 10:25:23;;;;;;;10.15;5.60;;;;;;;24.24;34.84;102100.50;5034088;28;20421;-84
2023/06/01 10:28:19;;;;;;;7.72;5.40;;;;;;;24.03;34.92;102097.53;5018018;28;20033;-82
2023/06/01 10:30:46;;;;;;;6.95;5.30;;;;;;;24.12;34.79;102099.84;5049161;28;20127;-83
2023/06/01 10:33:11;;;;;;;8.57;6.10;;;;;;;23.72;35.39;102088.88;5037932;28;20085;-82
2023/06/01 10:35:37;;;;;;;9.80;6.45;;;;;;;22.60;37.27;102078.72;5069090;28;20445;-83
2023/06/01 10:38:14;;;;;;;10.70;6.30;;;;;;;23.12;37.03;102085.84;5063515;28;20021;-82
2023/06/01 10:40:41;;;;;;;9.52;6.07;;;;;;;22.57;37.52;102079.22;5057877;28;20113;-83
2023/06/01 10:43:09;;;;;;;9.32;6.10;;;;;;;22.79;37.81;102082.03;5034388;28;20056;-83
2023/06/01 10:45:35;;;;;;;10.90;6.70;;;;;;;22.88;36.57;102089.88;5052408;28;20025;-83
2023/06/01 10:48:04;;;;;;;9.73;5.78;;;;;;;22.80;37.10;102077.41;5052907;28;20032;-83
2023/06/01 10:50:29;;;;;;;7.82;5.50;;;;;;;24.19;34.72;102078.44;5051307;28;20036;-83
2023/06/01 10:52:55;;;;;;;7.75;5.55;;;;;;;24.60;33.34;102081.56;5035153;28;20079;-83
2023/06/01 10:55:23;;;;;;;7.72;5.30;;;;;;;25.62;31.42;102077.06;5052569;28;20116;-83
2023/06/01 10:57:49;;;;;;;11.75;5.50;;;;;;;25.68;31.56;102078.72;5051010;28;20254;-83
2023/06/01 11:00:26;;;;;;;10.25;5.38;;;;;;;25.48;31.40;102075.88;5053122;28;20359;-83
2023/06/01 11:02:54;;;;;;;8.98;5.57;;;;;;;25.10;32.97;102075.91;5052894;28;20047;-83
2023/06/01 11:05:51;;;;;;;8.85;5.65;;;;;;;25.03;32.71;102072.56;5052385;28;20029;-83
2023/06/01 11:08:20;;;;;;;11.15;5.72;;;;;;;25.36;32.05;102070.56;5052817;28;20449;-83
2023/06/01 11:10:54;;;;;;;8.02;5.63;;;;;;;26.11;30.76;102064.81;5103793;23;20060;-84
2023/06/01 11:13:29;;;;;;;9.35;5.75;;;;;;;25.88;31.47;102066.94;5053688;28;20029;-84
2023/06/01 11:16:04;;;;;;;10.90;5.63;;;;;;;26.58;30.84;102062.91;5052170;28;20103;-84
2023/06/01 11:18:49;;;;;;;6.97;6.10;;;;;;;25.93;31.28;102057.03;5051948;28;20025;-84
2023/06/01 11:21:21;;;;;;;9.68;5.95;;;;;;;25.52;32.01;102058.53;5052943;28;20032;-84
2023/06/01 11:23:46;;;;;;;9.35;6.22;;;;;;;24.91;33.05;102062.56;5035602;28;20108;-84
2023/06/01 11:26:16;;;;;;;8.07;6.03;;;;;;;24.50;33.95;102053.97;5059635;28;20023;-84
2023/06/01 11:28:41;;;;;;;10.27;6.45;;;;;;;24.91;33.44;102057.06;5052309;28;20044;-84
2023/06/01 11:31:13;;;;;;;10.68;6.47;;;;;;;25.18;32.93;102047.88;5051828;28;20029;-84
2023/06/01 11:36:24;;;;;;;9.15;6.40;;;;;;;25.47;32.63;102050.22;5050978;28;20087;-84
2023/06/01 11:38:57;;;;;;;9.43;6.88;;;;;;;24.59;33.21;102041.38;5033682;28;20041;-85
2023/06/01 11:41:31;;;;;;;12.25;6.22;;;;;;;25.48;32.63;102040.88;5049597;28;20025;-84
2023/06/01 11:43:58;;;;;;;8.98;6.38;;;;;;;26.04;31.49;102042.13;5047131;28;20029;-84
2023/06/01 11:46:24;;;;;;;9.90;6.30;;;;;;;26.57;30.41;102032.81;5051346;28;20021;-85